Time;durP1;ratioP1;P1;durP2;ratioP2;P2;SDS_P1;SDS_P2;PMS_P1;PMS_P2;Temp;Humidity;BMP_temperature;BMP_pressure;BME280_temperature;BME280_humidity;BME280_pressure;Samples;Min_cycle;Max_cycle;Signal;HPM_P1;HPM_P2
2021/09/15 00:00:28;;;;;;;;;;;;;;;;;;2089900;28;1740;-83
2021/09/15 00:01:29;;;;;;;;;;;;;;;;;;2099616;28;1245;-84
2021/09/15 00:02:33;;;;;;;;;;;;;;;;;;2095574;28;1373;-83
2021/09/15 00:03:36;;;;;;;;;;;;;;;;;;2100002;28;905;-84
2021/09/15 00:04:38;;;;;;;;;;;;;;;;;;2108428;28;1277;-83
2021/09/15 00:05:39;;;;;;;;;;;;;;;;;;2095640;28;1386;-83
2021/09/15 00:06:41;;;;;;;;;;;;;;;;;;2083508;28;1235;-84
2021/09/15 00:07:41;;;;;;;;;;;;;;;;;;2096689;28;1208;-84
2021/09/15 00:08:43;;;;;;;;;;;;;;;;;;2100143;28;1405;-84
2021/09/15 00:09:44;;;;;;;;;;;;;;;;;;2108001;28;1512;-84
2021/09/15 00:10:46;;;;;;;;;;;;;;;;;;2108246;28;1975;-84
2021/09/15 00:11:47;;;;;;;;;;;;;;;;;;2099322;28;1267;-84
2021/09/15 00:12:51;;;;;;;;;;;;;;;;;;2091124;28;2020;-84
2021/09/15 00:13:52;;;;;;;;;;;;;;;;;;2091754;28;1294;-84
2021/09/15 00:14:54;;;;;;;;;;;;;;;;;;2099870;28;1455;-84
2021/09/15 00:15:55;;;;;;;;;;;;;;;;;;2108176;28;1174;-83
2021/09/15 00:16:56;;;;;;;;;;;;;;;;;;2099672;28;1310;-83
2021/09/15 00:17:59;;;;;;;;;;;;;;;;;;2108134;28;1394;-83
2021/09/15 00:19:00;;;;;;;;;;;;;;;;;;2099972;28;1366;-84
2021/09/15 00:20:01;;;;;;;;;;;;;;;;;;2091448;28;855;-84
2021/09/15 00:21:03;;;;;;;;;;;;;;;;;;2100109;28;1350;-83
2021/09/15 00:22:05;;;;;;;;;;;;;;;;;;2099546;28;1880;-84
2021/09/15 00:23:07;;;;;;;;;;;;;;;;;;2100360;28;1259;-84
2021/09/15 00:24:08;;;;;;;;;;;;;;;;;;2099917;28;1240;-84
2021/09/15 00:25:09;;;;;;;;;;;;;;;;;;2091813;28;1268;-84
2021/09/15 00:26:10;;;;;;;;;;;;;;;;;;2091328;28;1192;-84
2021/09/15 00:27:12;;;;;;;;;;;;;;;;;;2098501;28;1173;-84
2021/09/15 00:28:14;;;;;;;;;;;;;;;;;;2082875;28;1284;-82
2021/09/15 00:29:16;;;;;;;;;;;;;;;;;;2083309;28;1208;-83
2021/09/15 00:30:17;;;;;;;;;;;;;;;;;;2102976;28;1673;-82
2021/09/15 00:31:18;;;;;;;;;;;;;;;;;;2099586;28;1905;-82
2021/09/15 00:32:20;;;;;;;;;;;;;;;;;;2099565;28;1318;-83
2021/09/15 00:33:24;;;;;;;;;;;;;;;;;;2099803;28;1409;-83
2021/09/15 00:34:29;;;;;;;;;;;;;;;;;;2091192;28;1267;-83
2021/09/15 00:35:35;;;;;;;;;;;;;;;;;;2091404;28;1315;-82
2021/09/15 00:36:36;;;;;;;;;;;;;;;;;;2091620;28;1334;-83
2021/09/15 00:37:38;;;;;;;;;;;;;;;;;;2099681;28;1300;-83
2021/09/15 00:38:40;;;;;;;;;;;;;;;;;;2091431;28;1313;-83
2021/09/15 00:39:40;;;;;;;;;;;;;;;;;;2091107;28;1259;-83
2021/09/15 00:40:43;;;;;;;;;;;;;;;;;;2090062;28;1312;-83
2021/09/15 00:41:44;;;;;;;;;;;;;;;;;;2075005;28;1176;-83
2021/09/15 00:42:46;;;;;;;;;;;;;;;;;;2094152;28;1329;-83
2021/09/15 00:44:07;;;;;;;;;;;;;;;;;;2091276;28;1689;-83
2021/09/15 00:45:08;;;;;;;;;;;;;;;;;;2094200;28;1259;-82
2021/09/15 00:46:10;;;;;;;;;;;;;;;;;;2099114;28;1282;-83
2021/09/15 00:47:10;;;;;;;;;;;;;;;;;;2098810;28;1235;-82
2021/09/15 00:48:13;;;;;;;;;;;;;;;;;;2092852;28;1224;-83
2021/09/15 00:49:15;;;;;;;;;;;;;;;;;;2091152;28;1528;-82
2021/09/15 00:50:19;;;;;;;;;;;;;;;;;;2091244;28;2065;-82
2021/09/15 00:51:20;;;;;;;;;;;;;;;;;;2099481;28;2016;-82
2021/09/15 00:52:23;;;;;;;;;;;;;;;;;;2096829;28;1339;-83
2021/09/15 00:53:26;;;;;;;;;;;;;;;;;;2103114;28;1538;-84
2021/09/15 00:54:27;;;;;;;;;;;;;;;;;;2094827;28;1822;-83
2021/09/15 00:55:31;;;;;;;;;;;;;;;;;;2105468;28;1644;-83
2021/09/15 00:56:32;;;;;;;;;;;;;;;;;;2099100;28;1351;-83
2021/09/15 00:57:34;;;;;;;;;;;;;;;;;;2099553;28;1218;-83
2021/09/15 00:58:36;;;;;;;;;;;;;;;;;;2100213;28;1256;-83
2021/09/15 00:59:38;;;;;;;;;;;;;;;;;;2105453;28;1092;-83
2021/09/15 01:00:39;;;;;;;;;;;;;;;;;;2104438;28;1787;-83
2021/09/15 01:01:42;;;;;;;;;;;;;;;;;;2105460;28;1335;-83
2021/09/15 01:02:43;;;;;;;;;;;;;;;;;;2098701;28;1844;-83
2021/09/15 01:03:46;;;;;;;;;;;;;;;;;;2088312;28;1318;-83
2021/09/15 01:04:49;;;;;;;;;;;;;;;;;;2088642;28;1423;-83
2021/09/15 01:05:52;;;;;;;;;;;;;;;;;;2089851;28;1246;-83
2021/09/15 01:06:54;;;;;;;;;;;;;;;;;;2084950;28;1335;-82
2021/09/15 01:07:57;;;;;;;;;;;;;;;;;;2084175;28;1230;-83
2021/09/15 01:08:59;;;;;;;;;;;;;;;;;;2091075;28;1396;-83
2021/09/15 01:10:01;;;;;;;;;;;;;;;;;;2091131;28;1359;-82
2021/09/15 01:11:06;;;;;;;;;;;;;;;;;;2098792;28;1922;-83
2021/09/15 01:12:12;;;;;;;;;;;;;;;;;;2090032;28;1380;-82
2021/09/15 01:13:44;;;;;;;;;;;;;;;;;;2087166;28;1327;-82
2021/09/15 01:15:05;;;;;;;;;;;;;;;;;;2093466;28;757;-83
2021/09/15 01:16:22;;;;;;;;;;;;;;;;;;2091408;28;1629;-82
2021/09/15 01:17:53;;;;;;;;;;;;;;;;;;2079436;28;1490;-82
2021/09/15 01:19:24;;;;;;;;;;;;;;;;;;2056203;28;1363;-82
2021/09/15 01:20:46;;;;;;;;;;;;;;;;;;2069810;28;1899;-82
2021/09/15 01:22:11;;;;;;;;;;;;;;;;;;2061430;28;1406;-83
2021/09/15 01:23:31;;;;;;;;;;;;;;;;;;2088458;28;1341;-82
2021/09/15 01:24:51;;;;;;;;;;;;;;;;;;2093686;28;1988;-83
2021/09/15 01:26:12;;;;;;;;;;;;;;;;;;2091205;28;698;-83
2021/09/15 01:27:43;;;;;;;;;;;;;;;;;;2082388;28;1337;-83
2021/09/15 01:29:02;;;;;;;;;;;;;;;;;;2077352;28;1533;-82
2021/09/15 01:30:06;;;;;;;;;;;;;;;;;;2099535;28;1194;-82
2021/09/15 01:31:08;;;;;;;;;;;;;;;;;;2098947;28;1919;-82
2021/09/15 01:32:10;;;;;;;;;;;;;;;;;;2082499;28;1405;-82
2021/09/15 01:33:12;;;;;;;;;;;;;;;;;;2066872;28;1357;-82
2021/09/15 01:34:13;;;;;;;;;;;;;;;;;;2082726;28;1268;-82
2021/09/15 01:35:16;;;;;;;;;;;;;;;;;;2102943;28;2114;-82
2021/09/15 01:36:18;;;;;;;;;;;;;;;;;;2090850;28;1285;-82
2021/09/15 01:37:23;;;;;;;;;;;;;;;;;;2083382;28;2005;-82
2021/09/15 01:38:30;;;;;;;;;;;;;;;;;;2100565;28;1395;-82
2021/09/15 01:39:33;;;;;;;;;;;;;;;;;;2099204;28;1428;-82
2021/09/15 01:40:34;;;;;;;;;;;;;;;;;;2082525;28;2015;-82
2021/09/15 01:41:36;;;;;;;;;;;;;;;;;;2081709;28;1310;-83
2021/09/15 01:42:39;;;;;;;;;;;;;;;;;;2091091;28;1401;-82
2021/09/15 01:43:49;;;;;;;;;;;;;;;;;;2098810;28;1219;-83
2021/09/15 01:44:50;;;;;;;;;;;;;;;;;;2090897;28;2092;-83
2021/09/15 01:45:54;;;;;;;;;;;;;;;;;;2082456;28;1355;-83
2021/09/15 01:47:00;;;;;;;;;;;;;;;;;;2067176;28;1268;-82
2021/09/15 01:48:01;;;;;;;;;;;;;;;;;;2076355;28;2084;-83
2021/09/15 01:49:08;;;;;;;;;;;;;;;;;;2082773;28;1318;-83
2021/09/15 01:50:09;;;;;;;;;;;;;;;;;;2074801;28;1214;-83
2021/09/15 01:51:11;;;;;;;;;;;;;;;;;;2082543;28;1215;-83
2021/09/15 01:52:14;;;;;;;;;;;;;;;;;;2090624;28;1914;-83
2021/09/15 01:53:17;;;;;;;;;;;;;;;;;;2091115;28;1385;-82
2021/09/15 01:54:18;;;;;;;;;;;;;;;;;;2082808;28;1302;-83
2021/09/15 01:55:20;;;;;;;;;;;;;;;;;;2081012;28;1819;-83
2021/09/15 01:56:23;;;;;;;;;;;;;;;;;;2083100;28;1000;-83
2021/09/15 01:57:59;;;;;;;;;;;;;;;;;;2095861;28;1015;-83
2021/09/15 01:59:19;;;;;;;;;;;;;;;;;;2101752;28;662;-83
2021/09/15 02:00:39;;;;;;;;;;;;;;;;;;2101609;28;794;-83
2021/09/15 02:01:56;;;;;;;;;;;;;;;;;;2109151;28;1594;-82
2021/09/15 02:03:21;;;;;;;;;;;;;;;;;;2089815;28;1724;-83
2021/09/15 02:04:39;;;;;;;;;;;;;;;;;;2086699;28;1495;-83
2021/09/15 02:05:56;;;;;;;;;;;;;;;;;;2082347;28;1294;-83
2021/09/15 02:07:08;;;;;;;;;;;;;;;;;;2073571;28;1212;-83
2021/09/15 02:08:41;;;;;;;;;;;;;;;;;;2088470;28;1329;-82
2021/09/15 02:10:00;;;;;;;;;;;;;;;;;;2093123;28;643;-83
2021/09/15 02:11:02;;;;;;;;;;;;;;;;;;2084229;28;1283;-83
2021/09/15 02:12:03;;;;;;;;;;;;;;;;;;2075891;28;1910;-83
2021/09/15 02:13:09;;;;;;;;;;;;;;;;;;2085120;28;1196;-82
2021/09/15 02:14:10;;;;;;;;;;;;;;;;;;2092543;28;1358;-83
2021/09/15 02:15:20;;;;;;;;;;;;;;;;;;2105054;28;1912;-83
2021/09/15 02:16:24;;;;;;;;;;;;;;;;;;2100317;28;1293;-83
2021/09/15 02:17:29;;;;;;;;;;;;;;;;;;2092621;28;1187;-83
2021/09/15 02:18:31;;;;;;;;;;;;;;;;;;2093038;28;1284;-82
2021/09/15 02:19:52;;;;;;;;;;;;;;;;;;2095168;28;1668;-83
2021/09/15 02:20:57;;;;;;;;;;;;;;;;;;2092613;28;831;-82
2021/09/15 02:22:34;;;;;;;;;;;;;;;;;;2092932;28;1331;-81
2021/09/15 02:23:56;;;;;;;;;;;;;;;;;;2101160;28;1302;-83
2021/09/15 02:25:13;;;;;;;;;;;;;;;;;;2101671;28;2000;-83
2021/09/15 02:26:37;;;;;;;;;;;;;;;;;;2092497;28;1224;-83
2021/09/15 02:27:39;;;;;;;;;;;;;;;;;;2100305;28;1916;-82
2021/09/15 02:28:41;;;;;;;;;;;;;;;;;;2100684;28;1168;-83
2021/09/15 02:30:01;;;;;;;;;;;;;;;;;;2100543;28;2080;-83
2021/09/15 02:31:06;;;;;;;;;;;;;;;;;;2101044;28;1177;-83
2021/09/15 02:32:27;;;;;;;;;;;;;;;;;;2101606;28;1971;-84
2021/09/15 02:33:52;;;;;;;;;;;;;;;;;;2067431;28;1393;-82
2021/09/15 02:34:59;;;;;;;;;;;;;;;;;;2100661;28;1272;-83
2021/09/15 02:36:19;;;;;;;;;;;;;;;;;;2106780;28;669;-83
2021/09/15 02:37:29;;;;;;;;;;;;;;;;;;2100475;28;1610;-83
2021/09/15 02:38:49;;;;;;;;;;;;;;;;;;2100798;28;1533;-83
2021/09/15 02:40:19;;;;;;;;;;;;;;;;;;2088666;28;2272;-83
2021/09/15 02:41:43;;;;;;;;;;;;;;;;;;2100351;28;1249;-82
2021/09/15 02:43:04;;;;;;;;;;;;;;;;;;2087338;28;1641;-83
2021/09/15 02:44:24;;;;;;;;;;;;;;;;;;2094683;28;1403;-83
2021/09/15 02:45:43;;;;;;;;;;;;;;;;;;2100718;28;685;-82
2021/09/15 02:46:56;;;;;;;;;;;;;;;;;;2101007;28;1299;-83
2021/09/15 02:48:15;;;;;;;;;;;;;;;;;;2078630;28;1165;-82
2021/09/15 02:49:40;;;;;;;;;;;;;;;;;;2087019;28;1512;-83
2021/09/15 02:50:59;;;;;;;;;;;;;;;;;;2093075;28;603;-82
2021/09/15 02:52:12;;;;;;;;;;;;;;;;;;2092169;28;1980;-84
2021/09/15 02:53:25;;;;;;;;;;;;;;;;;;2100765;28;1286;-83
2021/09/15 02:54:37;;;;;;;;;;;;;;;;;;2091364;28;1614;-82
2021/09/15 02:55:51;;;;;;;;;;;;;;;;;;2093634;28;1399;-84
2021/09/15 02:57:09;;;;;;;;;;;;;;;;;;2089003;28;1679;-84
2021/09/15 02:58:18;;;;;;;;;;;;;;;;;;2084009;28;1185;-83
2021/09/15 02:59:25;;;;;;;;;;;;;;;;;;2093275;28;1432;-85
2021/09/15 03:00:37;;;;;;;;;;;;;;;;;;2097280;28;1320;-84
2021/09/15 03:01:47;;;;;;;;;;;;;;;;;;2085462;28;1271;-83
2021/09/15 03:03:00;;;;;;;;;;;;;;;;;;2093672;28;1372;-82
2021/09/15 03:04:24;;;;;;;;;;;;;;;;;;2064427;28;1430;-82
2021/09/15 03:05:40;;;;;;;;;;;;;;;;;;2100529;28;1362;-83
2021/09/15 03:07:00;;;;;;;;;;;;;;;;;;2098386;28;1215;-82
2021/09/15 03:08:08;;;;;;;;;;;;;;;;;;2092386;28;1477;-82
2021/09/15 03:09:10;;;;;;;;;;;;;;;;;;2085420;28;1436;-83
2021/09/15 03:10:10;;;;;;;;;;;;;;;;;;2077718;28;1354;-83
2021/09/15 03:11:15;;;;;;;;;;;;;;;;;;2084467;28;1352;-83
2021/09/15 03:12:15;;;;;;;;;;;;;;;;;;2091634;28;2159;-82
2021/09/15 03:13:17;;;;;;;;;;;;;;;;;;2092137;28;1200;-83
2021/09/15 03:14:19;;;;;;;;;;;;;;;;;;2083985;28;1342;-82
2021/09/15 03:15:21;;;;;;;;;;;;;;;;;;2084134;28;1188;-82
2021/09/15 03:16:24;;;;;;;;;;;;;;;;;;2092255;28;1414;-82
2021/09/15 03:17:26;;;;;;;;;;;;;;;;;;2088292;28;1471;-83
2021/09/15 03:18:27;;;;;;;;;;;;;;;;;;2084062;28;1310;-83
2021/09/15 03:19:29;;;;;;;;;;;;;;;;;;2089204;28;1724;-82
2021/09/15 03:20:30;;;;;;;;;;;;;;;;;;2083680;28;1533;-82
2021/09/15 03:21:31;;;;;;;;;;;;;;;;;;2091896;28;1386;-83
2021/09/15 03:22:32;;;;;;;;;;;;;;;;;;2100503;28;1386;-82
2021/09/15 03:23:37;;;;;;;;;;;;;;;;;;2096631;28;845;-83
2021/09/15 03:24:38;;;;;;;;;;;;;;;;;;2100194;28;1281;-82
2021/09/15 03:25:40;;;;;;;;;;;;;;;;;;2091819;28;1374;-83
2021/09/15 03:26:42;;;;;;;;;;;;;;;;;;2091898;28;1215;-82
2021/09/15 03:27:44;;;;;;;;;;;;;;;;;;2108180;28;1349;-82
2021/09/15 03:28:45;;;;;;;;;;;;;;;;;;2108904;28;1342;-82
2021/09/15 03:29:47;;;;;;;;;;;;;;;;;;2100487;28;1369;-83
2021/09/15 03:30:47;;;;;;;;;;;;;;;;;;2091704;28;2009;-82
2021/09/15 03:31:49;;;;;;;;;;;;;;;;;;2089738;28;1913;-83
2021/09/15 03:32:50;;;;;;;;;;;;;;;;;;2084971;28;2126;-82
2021/09/15 03:33:52;;;;;;;;;;;;;;;;;;2083609;28;1461;-82
2021/09/15 03:34:53;;;;;;;;;;;;;;;;;;2091642;28;1839;-81
2021/09/15 03:35:55;;;;;;;;;;;;;;;;;;2075436;28;1505;-82
2021/09/15 03:36:57;;;;;;;;;;;;;;;;;;2075295;28;1474;-83
2021/09/15 03:37:59;;;;;;;;;;;;;;;;;;2091091;28;1193;-82
2021/09/15 03:39:01;;;;;;;;;;;;;;;;;;2100280;28;1353;-82
2021/09/15 03:40:02;;;;;;;;;;;;;;;;;;2099876;28;1285;-84
2021/09/15 03:41:05;;;;;;;;;;;;;;;;;;2084290;28;1696;-88
2021/09/15 03:42:08;;;;;;;;;;;;;;;;;;2099719;28;1389;-88
2021/09/15 03:43:10;;;;;;;;;;;;;;;;;;2100047;28;1280;-88
2021/09/15 03:44:11;;;;;;;;;;;;;;;;;;2100660;28;1218;-89
2021/09/15 03:45:13;;;;;;;;;;;;;;;;;;2106257;28;1316;-88
2021/09/15 03:46:14;;;;;;;;;;;;;;;;;;2100484;28;1345;-87
2021/09/15 03:47:21;;;;;;;;;;;;;;;;;;2092078;28;1456;-89
2021/09/15 03:48:22;;;;;;;;;;;;;;;;;;2092212;28;1196;-89
2021/09/15 03:49:25;;;;;;;;;;;;;;;;;;2092015;28;1453;-89
2021/09/15 03:50:28;;;;;;;;;;;;;;;;;;2081531;28;1864;-89
2021/09/15 03:51:33;;;;;;;;;;;;;;;;;;2083529;28;1291;-88
2021/09/15 03:52:33;;;;;;;;;;;;;;;;;;2080818;28;1969;-89
2021/09/15 03:53:36;;;;;;;;;;;;;;;;;;2089059;28;1417;-89
2021/09/15 03:54:39;;;;;;;;;;;;;;;;;;2099974;28;1295;-90
2021/09/15 03:55:42;;;;;;;;;;;;;;;;;;2091712;28;1227;-90
2021/09/15 03:56:43;;;;;;;;;;;;;;;;;;2092016;28;1185;-90
2021/09/15 03:57:46;;;;;;;;;;;;;;;;;;2105901;28;1263;-87
2021/09/15 03:58:49;;;;;;;;;;;;;;;;;;2108959;28;1458;-88
2021/09/15 03:59:52;;;;;;;;;;;;;;;;;;2107826;28;1889;-87
2021/09/15 04:00:52;;;;;;;;;;;;;;;;;;2091254;28;1326;-87
2021/09/15 04:01:54;;;;;;;;;;;;;;;;;;2083610;28;1431;-87
2021/09/15 04:02:56;;;;;;;;;;;;;;;;;;2083625;28;1246;-87
2021/09/15 04:04:03;;;;;;;;;;;;;;;;;;2091906;28;1247;-87
2021/09/15 04:05:04;;;;;;;;;;;;;;;;;;2083528;28;1523;-87
2021/09/15 04:06:06;;;;;;;;;;;;;;;;;;2083425;28;1252;-87
2021/09/15 04:07:07;;;;;;;;;;;;;;;;;;2100261;28;1295;-87
2021/09/15 04:08:31;;;;;;;;;;;;;;;;;;2096110;28;1387;-87
2021/09/15 04:10:49;;;;;;;;;;;;;;;;;;2096277;28;1397;-89
2021/09/15 04:11:51;;;;;;;;;;;;;;;;;;2099855;28;1240;-88
2021/09/15 04:12:54;;;;;;;;;;;;;;;;;;2108186;28;1925;-88
2021/09/15 04:13:57;;;;;;;;;;;;;;;;;;2105895;28;1269;-88
2021/09/15 04:14:59;;;;;;;;;;;;;;;;;;2099896;28;1210;-88
2021/09/15 04:15:59;;;;;;;;;;;;;;;;;;2083289;28;1881;-88
2021/09/15 04:17:01;;;;;;;;;;;;;;;;;;2083657;28;1388;-88
2021/09/15 04:18:04;;;;;;;;;;;;;;;;;;2091903;28;949;-88
2021/09/15 04:19:06;;;;;;;;;;;;;;;;;;2098154;28;1393;-88
2021/09/15 04:20:08;;;;;;;;;;;;;;;;;;2075238;28;1880;-91
2021/09/15 04:21:10;;;;;;;;;;;;;;;;;;2092080;28;1413;-89
2021/09/15 04:22:17;;;;;;;;;;;;;;;;;;2092672;28;1710;-90
2021/09/15 04:23:23;;;;;;;;;;;;;;;;;;2083684;28;1412;-88
2021/09/15 04:31:11;;;;;;;;;;;;;;;;;;2084307;28;1310;-88
2021/09/15 04:31:31;;;;;;;;;;;;;;;;;;2086919;28;1309;-89
2021/09/15 04:32:32;;;;;;;;;;;;;;;;;;2088505;28;1975;-88
2021/09/15 04:33:36;;;;;;;;;;;;;;;;;;2087778;28;1451;-86
2021/09/15 04:34:38;;;;;;;;;;;;;;;;;;2092117;28;1360;-89
2021/09/15 04:35:41;;;;;;;;;;;;;;;;;;2099376;28;1292;-86
2021/09/15 04:36:43;;;;;;;;;;;;;;;;;;2100281;28;1358;-87
2021/09/15 04:37:45;;;;;;;;;;;;;;;;;;2092490;28;1236;-88
2021/09/15 04:38:56;;;;;;;;;;;;;;;;;;2091311;28;1262;-84
2021/09/15 04:39:57;;;;;;;;;;;;;;;;;;2091475;28;1320;-85
2021/09/15 04:41:01;;;;;;;;;;;;;;;;;;2092040;28;1343;-87
2021/09/15 04:42:02;;;;;;;;;;;;;;;;;;2098951;28;1279;-91
2021/09/15 04:43:04;;;;;;;;;;;;;;;;;;2082845;28;1364;-82
2021/09/15 04:44:06;;;;;;;;;;;;;;;;;;2081231;28;1693;-83
2021/09/15 04:45:09;;;;;;;;;;;;;;;;;;2099641;28;1198;-82
2021/09/15 04:46:09;;;;;;;;;;;;;;;;;;2092075;28;807;-83
2021/09/15 04:47:12;;;;;;;;;;;;;;;;;;2100442;28;1330;-82
2021/09/15 04:48:13;;;;;;;;;;;;;;;;;;2099540;28;1787;-85
2021/09/15 04:49:15;;;;;;;;;;;;;;;;;;2083404;28;1413;-85
2021/09/15 04:50:22;;;;;;;;;;;;;;;;;;2091201;28;1523;-85
2021/09/15 04:51:24;;;;;;;;;;;;;;;;;;2091884;28;1676;-85
2021/09/15 04:52:26;;;;;;;;;;;;;;;;;;2099578;28;1983;-86
2021/09/15 04:53:27;;;;;;;;;;;;;;;;;;2082735;28;1296;-86
2021/09/15 04:54:28;;;;;;;;;;;;;;;;;;2082944;28;1377;-86
2021/09/15 04:55:32;;;;;;;;;;;;;;;;;;2083247;28;1283;-85
2021/09/15 04:56:33;;;;;;;;;;;;;;;;;;2083112;28;1331;-84
2021/09/15 04:57:35;;;;;;;;;;;;;;;;;;2078417;28;1779;-86
2021/09/15 04:58:36;;;;;;;;;;;;;;;;;;2091547;28;1335;-86
2021/09/15 04:59:38;;;;;;;;;;;;;;;;;;2091158;28;1543;-86
2021/09/15 05:00:40;;;;;;;;;;;;;;;;;;2089948;28;1910;-85
2021/09/15 05:01:45;;;;;;;;;;;;;;;;;;2099967;28;1184;-85
2021/09/15 05:02:47;;;;;;;;;;;;;;;;;;2105415;28;1858;-86
2021/09/15 05:04:02;;;;;;;;;;;;;;;;;;2091453;28;1231;-85
2021/09/15 05:05:05;;;;;;;;;;;;;;;;;;2082789;28;1864;-84
2021/09/15 05:06:18;;;;;;;;;;;;;;;;;;2088338;28;1550;-85
2021/09/15 05:07:21;;;;;;;;;;;;;;;;;;2084839;28;1993;-87
2021/09/15 05:08:23;;;;;;;;;;;;;;;;;;2083971;28;1354;-88
2021/09/15 05:09:24;;;;;;;;;;;;;;;;;;2099086;28;1429;-89
2021/09/15 05:10:26;;;;;;;;;;;;;;;;;;2083284;28;1308;-88
2021/09/15 05:11:28;;;;;;;;;;;;;;;;;;2083530;28;1331;-88
2021/09/15 05:12:30;;;;;;;;;;;;;;;;;;2090789;28;1914;-88
2021/09/15 05:13:34;;;;;;;;;;;;;;;;;;2083553;28;1366;-88
2021/09/15 05:14:34;;;;;;;;;;;;;;;;;;2083743;28;1239;-88
2021/09/15 05:15:38;;;;;;;;;;;;;;;;;;2089055;28;1860;-88
2021/09/15 05:16:42;;;;;;;;;;;;;;;;;;2083956;28;1368;-88
2021/09/15 05:17:43;;;;;;;;;;;;;;;;;;2083036;28;2107;-88
2021/09/15 05:18:44;;;;;;;;;;;;;;;;;;2099958;28;1408;-88
2021/09/15 05:19:46;;;;;;;;;;;;;;;;;;2091050;28;1181;-88
2021/09/15 05:20:48;;;;;;;;;;;;;;;;;;2082896;28;1970;-88
2021/09/15 05:21:50;;;;;;;;;;;;;;;;;;2082872;28;1241;-88
2021/09/15 05:22:53;;;;;;;;;;;;;;;;;;2082925;28;2215;-86
2021/09/15 05:23:55;;;;;;;;;;;;;;;;;;2067620;28;1414;-88
2021/09/15 05:24:56;;;;;;;;;;;;;;;;;;2091651;28;1235;-88
2021/09/15 05:26:00;;;;;;;;;;;;;;;;;;2099193;28;1355;-87
2021/09/15 05:27:01;;;;;;;;;;;;;;;;;;2099477;28;1477;-87
2021/09/15 05:28:03;;;;;;;;;;;;;;;;;;2090673;28;1807;-88
2021/09/15 05:29:07;;;;;;;;;;;;;;;;;;2075999;28;1432;-88
2021/09/15 05:30:11;;;;;;;;;;;;;;;;;;2096375;28;1426;-88
2021/09/15 05:31:18;;;;;;;;;;;;;;;;;;2098991;28;1280;-88
2021/09/15 05:32:20;;;;;;;;;;;;;;;;;;2082554;28;1398;-88
2021/09/15 05:33:22;;;;;;;;;;;;;;;;;;2082782;28;1914;-88
2021/09/15 05:34:25;;;;;;;;;;;;;;;;;;2090945;28;1235;-88
2021/09/15 05:35:27;;;;;;;;;;;;;;;;;;2090643;28;1883;-88
2021/09/15 05:36:33;;;;;;;;;;;;;;;;;;2083964;28;1546;-88
2021/09/15 05:37:37;;;;;;;;;;;;;;;;;;2083029;28;1866;-87
2021/09/15 05:38:40;;;;;;;;;;;;;;;;;;2083239;28;1357;-88
2021/09/15 05:39:49;;;;;;;;;;;;;;;;;;2084196;28;1208;-87
2021/09/15 05:40:49;;;;;;;;;;;;;;;;;;2082598;28;1323;-89
2021/09/15 05:41:52;;;;;;;;;;;;;;;;;;2083076;28;1387;-88
2021/09/15 05:42:53;;;;;;;;;;;;;;;;;;2082956;28;1501;-88
2021/09/15 05:43:55;;;;;;;;;;;;;;;;;;2091352;28;1162;-87
2021/09/15 05:45:02;;;;;;;;;;;;;;;;;;2076152;28;2248;-87
2021/09/15 05:46:04;;;;;;;;;;;;;;;;;;2091638;28;1227;-88
2021/09/15 05:47:07;;;;;;;;;;;;;;;;;;2107036;28;2049;-88
2021/09/15 05:48:09;;;;;;;;;;;;;;;;;;2099343;28;996;-88
2021/09/15 05:49:10;;;;;;;;;;;;;;;;;;2100168;28;1458;-87
2021/09/15 05:50:15;;;;;;;;;;;;;;;;;;2106570;28;1810;-88
2021/09/15 05:51:20;;;;;;;;;;;;;;;;;;2099268;28;1402;-88
2021/09/15 05:52:23;;;;;;;;;;;;;;;;;;2077250;28;1724;-88
2021/09/15 05:53:24;;;;;;;;;;;;;;;;;;2086333;28;1973;-89
2021/09/15 05:54:26;;;;;;;;;;;;;;;;;;2104451;28;1365;-88
2021/09/15 05:55:30;;;;;;;;;;;;;;;;;;2090950;28;1424;-90
2021/09/15 05:56:35;;;;;;;;;;;;;;;;;;2083512;28;1336;-89
2021/09/15 05:57:37;;;;;;;;;;;;;;;;;;2078319;28;1179;-88
2021/09/15 05:58:40;;;;;;;;;;;;;;;;;;2089225;28;1208;-89
2021/09/15 05:59:44;;;;;;;;;;;;;;;;;;2099208;28;1335;-88
2021/09/15 06:00:47;;;;;;;;;;;;;;;;;;2083456;28;1374;-88
2021/09/15 06:01:55;;;;;;;;;;;;;;;;;;2076001;28;1264;-89
2021/09/15 06:02:59;;;;;;;;;;;;;;;;;;2083641;28;1307;-89
2021/09/15 06:04:23;;;;;;;;;;;;;;;;;;2094405;28;1311;-87
2021/09/15 06:05:32;;;;;;;;;;;;;;;;;;2093466;28;2119;-87
2021/09/15 06:06:34;;;;;;;;;;;;;;;;;;2091752;28;1343;-88
2021/09/15 06:07:36;;;;;;;;;;;;;;;;;;2091285;28;1532;-88
2021/09/15 06:08:38;;;;;;;;;;;;;;;;;;2091501;28;1246;-88
2021/09/15 06:09:40;;;;;;;;;;;;;;;;;;2099741;28;1403;-89
2021/09/15 06:10:42;;;;;;;;;;;;;;;;;;2082761;28;1800;-88
2021/09/15 06:11:44;;;;;;;;;;;;;;;;;;2082621;28;1331;-88
2021/09/15 06:12:47;;;;;;;;;;;;;;;;;;2082739;28;2099;-88
2021/09/15 06:13:49;;;;;;;;;;;;;;;;;;2089605;28;1296;-88
2021/09/15 06:14:50;;;;;;;;;;;;;;;;;;2082403;28;1771;-88
2021/09/15 06:15:53;;;;;;;;;;;;;;;;;;2074268;28;1484;-88
2021/09/15 06:16:54;;;;;;;;;;;;;;;;;;2083609;28;1440;-88
2021/09/15 06:17:57;;;;;;;;;;;;;;;;;;2090079;28;1279;-88
2021/09/15 06:19:03;;;;;;;;;;;;;;;;;;2099221;28;1140;-88
2021/09/15 06:20:30;;;;;;;;;;;;;;;;;;2093086;28;1687;-88
2021/09/15 06:21:47;;;;;;;;;;;;;;;;;;2091376;28;1322;-88
2021/09/15 06:23:10;;;;;;;;;;;;;;;;;;2091628;28;1391;-88
2021/09/15 06:24:38;;;;;;;;;;;;;;;;;;2084633;28;1363;-89
2021/09/15 06:25:41;;;;;;;;;;;;;;;;;;2087132;28;2030;-88
2021/09/15 06:26:43;;;;;;;;;;;;;;;;;;2099602;28;1232;-89
2021/09/15 06:28:05;;;;;;;;;;;;;;;;;;2093973;28;1109;-87
2021/09/15 06:29:06;;;;;;;;;;;;;;;;;;2097328;28;1668;-86
2021/09/15 06:30:09;;;;;;;;;;;;;;;;;;2090514;28;1712;-86
2021/09/15 06:31:09;;;;;;;;;;;;;;;;;;2091491;28;842;-86
2021/09/15 06:32:11;;;;;;;;;;;;;;;;;;2097720;28;1959;-86
2021/09/15 06:33:12;;;;;;;;;;;;;;;;;;2082221;28;1914;-86
2021/09/15 06:34:15;;;;;;;;;;;;;;;;;;2098829;28;1232;-85
2021/09/15 06:35:16;;;;;;;;;;;;;;;;;;2090450;28;2024;-85
2021/09/15 06:36:19;;;;;;;;;;;;;;;;;;2074674;28;1465;-88
2021/09/15 06:37:20;;;;;;;;;;;;;;;;;;2091275;28;1749;-85
2021/09/15 06:38:22;;;;;;;;;;;;;;;;;;2106298;28;1476;-85
2021/09/15 06:39:22;;;;;;;;;;;;;;;;;;2107301;28;1404;-84
2021/09/15 06:40:24;;;;;;;;;;;;;;;;;;2092579;28;1911;-84
2021/09/15 06:41:25;;;;;;;;;;;;;;;;;;2088796;28;1370;-85
2021/09/15 06:42:27;;;;;;;;;;;;;;;;;;2078422;28;1263;-84
2021/09/15 06:43:28;;;;;;;;;;;;;;;;;;2090052;28;1355;-82
2021/09/15 06:44:29;;;;;;;;;;;;;;;;;;2090957;28;1276;-83
2021/09/15 06:45:31;;;;;;;;;;;;;;;;;;2089344;28;1940;-84
2021/09/15 06:46:32;;;;;;;;;;;;;;;;;;2079965;28;1315;-84
2021/09/15 06:47:39;;;;;;;;;;;;;;;;;;2084527;28;2055;-83
2021/09/15 06:48:41;;;;;;;;;;;;;;;;;;2098203;28;1634;-82
2021/09/15 06:49:44;;;;;;;;;;;;;;;;;;2097690;28;1700;-84
2021/09/15 06:50:47;;;;;;;;;;;;;;;;;;2100318;28;1854;-85
2021/09/15 06:51:48;;;;;;;;;;;;;;;;;;2099962;28;1197;-83
2021/09/15 06:52:50;;;;;;;;;;;;;;;;;;2108637;28;1429;-82
2021/09/15 06:53:52;;;;;;;;;;;;;;;;;;2108472;28;1922;-83
2021/09/15 06:54:54;;;;;;;;;;;;;;;;;;2107757;28;1927;-82
2021/09/15 06:55:57;;;;;;;;;;;;;;;;;;2083719;28;1216;-82
2021/09/15 06:56:59;;;;;;;;;;;;;;;;;;2081510;28;1559;-82
2021/09/15 06:58:00;;;;;;;;;;;;;;;;;;2100061;28;1559;-83
2021/09/15 06:59:03;;;;;;;;;;;;;;;;;;2092338;28;1572;-84
2021/09/15 07:00:04;;;;;;;;;;;;;;;;;;2093766;28;1755;-83
2021/09/15 07:01:06;;;;;;;;;;;;;;;;;;2100580;28;1326;-84
2021/09/15 07:02:07;;;;;;;;;;;;;;;;;;2094789;28;1733;-83
2021/09/15 07:03:10;;;;;;;;;;;;;;;;;;2083634;28;1233;-84
2021/09/15 07:04:10;;;;;;;;;;;;;;;;;;2098512;28;1762;-84
2021/09/15 07:05:14;;;;;;;;;;;;;;;;;;2105578;28;2103;-84
2021/09/15 07:06:14;;;;;;;;;;;;;;;;;;2092261;28;812;-85
2021/09/15 07:07:16;;;;;;;;;;;;;;;;;;2108178;28;1723;-84
2021/09/15 07:08:18;;;;;;;;;;;;;;;;;;2100094;28;1368;-84
2021/09/15 07:09:19;;;;;;;;;;;;;;;;;;2099974;28;1193;-84
2021/09/15 07:10:20;;;;;;;;;;;;;;;;;;2095664;28;1858;-84
2021/09/15 07:11:21;;;;;;;;;;;;;;;;;;2075762;28;1295;-84
2021/09/15 07:12:23;;;;;;;;;;;;;;;;;;2083584;28;1837;-85
2021/09/15 07:13:28;;;;;;;;;;;;;;;;;;2086685;28;1918;-84
2021/09/15 07:14:30;;;;;;;;;;;;;;;;;;2089013;28;1326;-84
2021/09/15 07:15:32;;;;;;;;;;;;;;;;;;2090285;28;1661;-84
2021/09/15 07:16:33;;;;;;;;;;;;;;;;;;2096904;28;1363;-84
2021/09/15 07:17:35;;;;;;;;;;;;;;;;;;2080306;28;1446;-84
2021/09/15 07:18:37;;;;;;;;;;;;;;;;;;2086964;28;1215;-85
2021/09/15 07:19:37;;;;;;;;;;;;;;;;;;2083925;28;1252;-84
2021/09/15 07:20:41;;;;;;;;;;;;;;;;;;2095926;28;1783;-84
2021/09/15 07:21:42;;;;;;;;;;;;;;;;;;2095364;28;1518;-84
2021/09/15 07:22:43;;;;;;;;;;;;;;;;;;2092221;28;1495;-85
2021/09/15 07:23:45;;;;;;;;;;;;;;;;;;2099660;28;1234;-84
2021/09/15 07:24:45;;;;;;;;;;;;;;;;;;2083999;28;1685;-85
2021/09/15 07:25:47;;;;;;;;;;;;;;;;;;2079037;28;1892;-84
2021/09/15 07:26:48;;;;;;;;;;;;;;;;;;2082191;28;1630;-84
2021/09/15 07:27:50;;;;;;;;;;;;;;;;;;2091596;28;1318;-84
2021/09/15 07:28:51;;;;;;;;;;;;;;;;;;2096336;28;1749;-87
2021/09/15 07:29:53;;;;;;;;;;;;;;;;;;2107618;28;1675;-87
2021/09/15 07:30:55;;;;;;;;;;;;;;;;;;2107738;28;1713;-86
2021/09/15 07:31:55;;;;;;;;;;;;;;;;;;2091898;28;1211;-86
2021/09/15 07:32:57;;;;;;;;;;;;;;;;;;2082868;28;1920;-86
2021/09/15 07:33:58;;;;;;;;;;;;;;;;;;2083490;28;1906;-87
2021/09/15 07:35:00;;;;;;;;;;;;;;;;;;2101416;28;2051;-86
2021/09/15 07:36:03;;;;;;;;;;;;;;;;;;2100142;28;1327;-86
2021/09/15 07:37:05;;;;;;;;;;;;;;;;;;2083425;28;1779;-87
2021/09/15 07:38:07;;;;;;;;;;;;;;;;;;2096632;28;1632;-86
2021/09/15 07:39:08;;;;;;;;;;;;;;;;;;2099578;28;1456;-85
2021/09/15 07:40:11;;;;;;;;;;;;;;;;;;2099666;28;1847;-86